createdAt,value
2022-11-06T00:02:31.749Z,83.45
2022-11-06T00:07:25.302Z,84.18
2022-11-06T00:12:18.456Z,84.90
2022-11-06T00:17:12.949Z,85.51
2022-11-06T00:22:06.871Z,86.50
2022-11-06T00:27:00.028Z,86.75
2022-11-06T00:31:53.303Z,87.13
2022-11-06T00:36:47.897Z,88.16
2022-11-06T00:41:41.378Z,89.19
2022-11-06T00:46:34.554Z,89.58
2022-11-06T00:51:30.380Z,89.97
2022-11-06T00:56:25.172Z,90.75
2022-11-06T01:01:21.865Z,90.49
2022-11-06T01:06:17.459Z,90.40
2022-11-06T01:11:16.090Z,90.76
2022-11-06T01:16:13.161Z,91.08
2022-11-06T01:21:07.535Z,91.76
2022-11-06T01:26:03.063Z,91.72
2022-11-06T01:30:56.839Z,91.85
2022-11-06T01:35:53.072Z,91.90
2022-11-06T01:40:48.610Z,92.49
2022-11-06T01:45:42.665Z,92.60
2022-11-06T01:50:36.178Z,92.47
2022-11-06T01:55:33.970Z,92.85
2022-11-06T02:00:27.877Z,92.73
2022-11-06T02:05:21.317Z,92.96
2022-11-06T02:10:14.518Z,93.09
2022-11-06T02:15:14.149Z,93.60
2022-11-06T02:20:14.424Z,93.52
2022-11-06T02:25:16.761Z,94.11
2022-11-06T02:30:13.305Z,94.43
2022-11-06T02:35:17.916Z,94.84
2022-11-06T02:40:14.263Z,95.52
2022-11-06T02:45:12.306Z,95.69
2022-11-06T02:50:11.360Z,96.02
2022-11-06T02:55:10.158Z,95.55
2022-11-06T03:00:07.921Z,95.90
2022-11-06T03:05:08.283Z,96.06
2022-11-06T03:10:01.465Z,96.59
2022-11-06T03:15:00.408Z,97.69
2022-11-06T03:19:57.359Z,98.01
2022-11-06T03:25:00.476Z,98.30
2022-11-06T03:29:59.396Z,98.42
2022-11-06T03:34:56.614Z,98.42
2022-11-06T03:39:54.586Z,98.50
2022-11-06T03:44:52.422Z,98.58
2022-11-06T03:49:50.785Z,98.43
2022-11-06T03:54:50.132Z,98.61
2022-11-06T03:59:49.590Z,98.63
2022-11-06T04:04:47.959Z,98.64
2022-11-06T04:10:02.599Z,98.88
2022-11-06T04:15:00.545Z,99.25
2022-11-06T04:19:56.736Z,98.88
2022-11-06T04:25:18.550Z,98.63
2022-11-06T04:30:16.156Z,98.36
2022-11-06T04:35:18.667Z,98.21
2022-11-06T04:40:18.683Z,98.41
2022-11-06T04:45:18.720Z,98.42
2022-11-06T04:50:16.522Z,97.97
2022-11-06T04:55:10.102Z,97.75
2022-11-06T05:00:03.506Z,97.50
2022-11-06T05:04:58.114Z,97.33
2022-11-06T05:09:51.765Z,97.23
2022-11-06T05:14:45.066Z,97.31
2022-11-06T05:19:38.239Z,97.67
2022-11-06T05:24:32.820Z,97.32
2022-11-06T05:29:26.029Z,97.28
2022-11-06T05:34:19.187Z,97.06
2022-11-06T05:39:12.534Z,96.64
2022-11-06T05:44:07.281Z,96.16
2022-11-06T05:49:00.567Z,95.61
2022-11-06T05:53:53.975Z,95.24
2022-11-06T05:58:47.224Z,95.12
2022-11-06T06:03:41.955Z,95.27
2022-11-06T06:08:35.055Z,95.13
2022-11-06T06:13:28.278Z,95.22
2022-11-06T06:18:21.787Z,95.21
2022-11-06T06:23:16.545Z,95.54
2022-11-06T06:28:09.982Z,95.07
2022-11-06T06:33:07.006Z,94.71
2022-11-06T06:38:00.590Z,94.34
2022-11-06T06:42:57.116Z,93.59
2022-11-06T06:47:53.628Z,92.91
2022-11-06T06:52:47.491Z,92.16
2022-11-06T06:57:40.591Z,91.57
2022-11-06T07:02:35.103Z,90.55
2022-11-06T07:07:28.424Z,90.37
2022-11-06T07:12:21.575Z,89.65
2022-11-06T07:17:14.704Z,88.92
2022-11-06T07:22:09.199Z,88.80
2022-11-06T07:27:02.307Z,88.80
2022-11-06T07:31:55.462Z,88.65
2022-11-06T07:36:48.584Z,88.00
2022-11-06T07:41:43.128Z,87.80
2022-11-06T07:46:36.317Z,87.58
2022-11-06T07:51:29.550Z,87.65
2022-11-06T07:56:22.792Z,87.60
2022-11-06T08:01:19.167Z,87.21
2022-11-06T08:06:13.150Z,85.39
2022-11-06T08:11:07.271Z,84.53
2022-11-06T08:16:00.437Z,83.60
2022-11-06T08:20:55.235Z,82.65
2022-11-06T08:25:48.841Z,81.88
2022-11-06T08:30:41.941Z,81.38
2022-11-06T08:35:36.209Z,81.47
2022-11-06T08:40:31.562Z,80.71
2022-11-06T08:45:24.773Z,80.63
2022-11-06T08:50:17.981Z,79.60
2022-11-06T08:55:11.158Z,79.26
2022-11-06T09:00:06.729Z,78.10
2022-11-06T09:04:59.873Z,76.44
2022-11-06T09:09:53.061Z,74.00
2022-11-06T09:14:47.342Z,71.52
2022-11-06T09:19:41.912Z,70.12
2022-11-06T09:25:01.433Z,69.99
2022-11-06T09:29:49.269Z,69.68
2022-11-06T09:34:46.177Z,70.40
2022-11-06T09:39:39.560Z,71.13
2022-11-06T09:44:49.883Z,71.22
2022-11-06T09:49:53.041Z,70.84
2022-11-06T09:54:55.983Z,70.01
2022-11-06T09:59:52.815Z,68.96
2022-11-06T10:04:50.946Z,68.98
2022-11-06T10:09:44.037Z,68.92
2022-11-06T10:14:51.367Z,67.86
2022-11-06T10:19:56.369Z,66.38
2022-11-06T10:24:58.871Z,65.13
2022-11-06T10:30:04.368Z,63.52
2022-11-06T10:35:04.512Z,62.54
2022-11-06T10:39:59.647Z,62.09
2022-11-06T10:44:58.141Z,61.52
2022-11-06T10:49:53.959Z,61.41
2022-11-06T10:55:04.296Z,61.58
2022-11-06T10:59:57.595Z,61.75
2022-11-06T11:04:55.331Z,61.16
2022-11-06T11:09:52.155Z,61.17
2022-11-06T11:14:45.430Z,60.78
2022-11-06T11:19:41.540Z,60.68
2022-11-06T11:24:35.202Z,60.49
2022-11-06T11:29:32.736Z,55.71
2022-11-06T11:34:28.360Z,53.58
2022-11-06T11:39:25.793Z,51.83
2022-11-06T11:44:20.560Z,50.38
2022-11-06T11:49:27.798Z,50.44
2022-11-06T11:54:25.750Z,51.00
2022-11-06T11:59:22.090Z,50.73
2022-11-06T12:04:23.092Z,49.83
2022-11-06T12:09:16.319Z,47.71
2022-11-06T12:14:20.490Z,46.02
2022-11-06T12:19:15.086Z,46.54
2022-11-06T12:24:17.874Z,47.71
2022-11-06T12:29:17.161Z,48.64
2022-11-06T12:34:17.842Z,48.81
2022-11-06T12:39:16.594Z,48.25
2022-11-06T12:44:12.717Z,48.60
2022-11-06T12:49:30.576Z,49.64
2022-11-06T12:54:41.234Z,50.09
2022-11-06T12:59:46.106Z,50.94
2022-11-06T13:04:52.641Z,51.18
2022-11-06T13:09:56.508Z,52.00
2022-11-06T13:15:04.452Z,52.79
2022-11-06T13:20:03.553Z,53.29
2022-11-06T13:25:05.563Z,53.47
2022-11-06T13:30:08.621Z,53.61
2022-11-06T13:35:03.660Z,53.91
2022-11-06T13:40:06.807Z,53.59
2022-11-06T13:45:02.374Z,53.50
2022-11-06T13:50:04.600Z,53.79
2022-11-06T13:55:12.061Z,54.06
2022-11-06T14:00:20.094Z,54.31
2022-11-06T14:05:53.561Z,54.72
2022-11-06T14:10:56.055Z,55.30
2022-11-06T14:15:49.264Z,55.69
2022-11-06T14:20:44.502Z,55.91
2022-11-06T14:25:58.824Z,56.07
2022-11-06T14:36:15.179Z,56.43
2022-11-06T14:41:44.879Z,56.74
2022-11-06T14:46:39.413Z,57.15
2022-11-06T14:51:33.114Z,57.31
2022-11-06T14:56:28.462Z,57.47
2022-11-06T15:01:29.835Z,57.14
2022-11-06T15:06:46.115Z,57.39
2022-11-06T15:11:57.705Z,57.58
2022-11-06T15:16:53.243Z,58.17
2022-11-06T15:21:51.674Z,58.54
2022-11-06T15:26:50.157Z,59.15
2022-11-06T15:31:46.308Z,59.49
2022-11-06T15:36:47.760Z,60.38
2022-11-06T15:41:43.521Z,62.17
2022-11-06T15:46:36.829Z,62.81
2022-11-06T15:51:30.993Z,64.05
2022-11-06T15:56:30.480Z,64.56
2022-11-06T16:01:34.079Z,65.54
2022-11-06T16:06:27.971Z,66.05
2022-11-06T16:11:22.095Z,66.62
2022-11-06T16:21:35.490Z,67.70
2022-11-06T16:26:37.688Z,68.25
2022-11-06T16:31:32.473Z,68.03
2022-11-06T16:36:27.319Z,68.49
2022-11-06T16:41:40.919Z,68.85
2022-11-06T16:47:17.085Z,68.81
2022-11-06T16:52:20.593Z,69.27
2022-11-06T16:57:20.157Z,69.34
2022-11-06T17:02:25.638Z,69.34
2022-11-06T17:07:23.674Z,69.14
2022-11-06T17:12:18.497Z,68.60
2022-11-06T17:17:26.055Z,68.87
2022-11-06T17:22:19.319Z,68.54
2022-11-06T17:27:12.519Z,68.66
2022-11-06T17:32:08.399Z,68.26
2022-11-06T17:37:01.678Z,67.92
2022-11-06T17:41:54.797Z,67.88
2022-11-06T17:46:48.607Z,67.90
2022-11-06T17:51:53.604Z,68.35
2022-11-06T17:56:47.308Z,68.15
2022-11-06T18:01:42.852Z,68.24
2022-11-06T18:06:36.829Z,67.98
2022-11-06T18:11:34.566Z,68.19
2022-11-06T18:16:30.252Z,68.10
2022-11-06T18:21:24.169Z,67.84
2022-11-06T18:26:18.078Z,68.16
2022-11-06T18:31:12.834Z,68.21
2022-11-06T18:36:08.973Z,68.27
2022-11-06T18:41:09.059Z,68.23
2022-11-06T18:46:04.512Z,68.43
2022-11-06T18:50:59.166Z,68.83
2022-11-06T18:55:55.685Z,68.58
2022-11-06T19:00:49.037Z,68.20
2022-11-06T19:05:53.781Z,68.10
2022-11-06T19:10:48.463Z,68.14
2022-11-06T19:15:46.247Z,68.01
2022-11-06T19:20:41.201Z,67.90
2022-11-06T19:25:34.521Z,67.48
2022-11-06T19:30:29.081Z,67.52
2022-11-06T19:35:22.467Z,68.02
2022-11-06T19:40:15.700Z,68.29
2022-11-06T19:45:09.728Z,68.37
2022-11-06T19:50:08.437Z,68.58
2022-11-06T19:55:25.836Z,68.34
2022-11-06T20:00:17.061Z,68.79
2022-11-06T20:05:13.740Z,69.08
2022-11-06T20:10:07.491Z,69.28
2022-11-06T20:15:00.823Z,69.01
2022-11-06T20:19:54.021Z,69.32
2022-11-06T20:24:50.481Z,69.29
2022-11-06T20:29:48.593Z,68.77
2022-11-06T20:34:45.178Z,68.46
2022-11-06T20:39:38.349Z,69.05
2022-11-06T20:44:35.037Z,69.63
2022-11-06T20:49:28.601Z,69.51
2022-11-06T20:54:22.104Z,69.39
2022-11-06T20:59:16.295Z,68.95
2022-11-06T21:04:12.629Z,67.99
2022-11-06T21:09:06.267Z,68.08
2022-11-06T21:14:00.393Z,69.41
2022-11-06T21:18:54.538Z,69.75
2022-11-06T21:23:49.597Z,70.19
2022-11-06T21:28:46.366Z,70.79
2022-11-06T21:33:41.744Z,71.04
2022-11-06T21:38:35.135Z,71.36
2022-11-06T21:43:33.259Z,71.39
2022-11-06T21:48:45.329Z,71.41
2022-11-06T21:53:58.303Z,71.66
2022-11-06T21:58:54.191Z,71.84
2022-11-06T22:03:47.668Z,71.73
2022-11-06T22:08:42.854Z,71.95
2022-11-06T22:13:36.277Z,72.50
2022-11-06T22:18:31.121Z,72.63
2022-11-06T22:23:24.454Z,72.92
2022-11-06T22:28:17.640Z,72.96
2022-11-06T22:33:11.107Z,72.87
2022-11-06T22:38:08.481Z,72.49
2022-11-06T22:43:01.656Z,72.31
2022-11-06T22:47:57.342Z,71.99
2022-11-06T22:52:51.741Z,71.76
2022-11-06T22:57:46.320Z,71.38
2022-11-06T23:02:39.561Z,70.99
2022-11-06T23:07:35.796Z,70.88
2022-11-06T23:12:33.058Z,70.38
2022-11-06T23:17:28.095Z,70.12
2022-11-06T23:22:39.621Z,69.73
2022-11-06T23:27:33.183Z,69.58
2022-11-06T23:32:28.061Z,69.69
2022-11-06T23:37:22.210Z,69.66
2022-11-06T23:42:15.793Z,69.39
2022-11-06T23:47:08.995Z,69.57
2022-11-06T23:52:03.616Z,69.79
2022-11-06T23:56:56.934Z,70.25
